Time;durP1;ratioP1;P1;durP2;ratioP2;P2;SDS_P1;SDS_P2;PMS_P1;PMS_P2;Temp;Humidity;BMP_temperature;BMP_pressure;BME280_temperature;BME280_humidity;BME280_pressure;Samples;Min_cycle;Max_cycle;Signal;HPM_P1;HPM_P2
2021/07/06 00:00:12;;;;;;;18.10;11.93;;;;;;;;;;5017900;28;20158;-47
2021/07/06 00:02:38;;;;;;;23.27;12.13;;;;;;;;;;5023957;28;20164;-47
2021/07/06 00:05:05;;;;;;;20.85;12.02;;;;;;;;;;5017406;28;20063;-47
2021/07/06 00:07:32;;;;;;;23.70;12.40;;;;;;;;;;5015297;28;20223;-47
2021/07/06 00:09:59;;;;;;;19.90;11.57;;;;;;;;;;5019740;28;20049;-47
2021/07/06 00:12:25;;;;;;;21.05;10.70;;;;;;;;;;5018386;28;20602;-47
2021/07/06 00:14:52;;;;;;;20.00;10.65;;;;;;;;;;5024380;28;20077;-46
2021/07/06 00:17:19;;;;;;;14.75;9.52;;;;;;;;;;5017505;28;20475;-47
2021/07/06 00:19:46;;;;;;;13.43;8.70;;;;;;;;;;5025871;28;20080;-47
2021/07/06 00:22:13;;;;;;;14.95;9.13;;;;;;;;;;5004843;28;20470;-47
2021/07/06 00:24:39;;;;;;;17.40;8.40;;;;;;;;;;5020639;28;20049;-51
2021/07/06 00:27:06;;;;;;;12.50;6.70;;;;;;;;;;5020283;28;20054;-47
2021/07/06 00:29:33;;;;;;;9.13;6.13;;;;;;;;;;5016158;28;20547;-47
2021/07/06 00:31:59;;;;;;;10.07;5.93;;;;;;;;;;5023293;28;20141;-47
2021/07/06 00:34:26;;;;;;;8.32;6.00;;;;;;;;;;5017726;28;20064;-47
2021/07/06 00:36:52;;;;;;;10.40;6.25;;;;;;;;;;5009497;28;20571;-46
2021/07/06 00:39:19;;;;;;;12.10;5.97;;;;;;;;;;5018000;28;20155;-49
2021/07/06 00:41:45;;;;;;;14.13;6.15;;;;;;;;;;5008419;28;20054;-47
2021/07/06 00:44:13;;;;;;;15.45;6.95;;;;;;;;;;5009144;28;20133;-47
2021/07/06 00:46:39;;;;;;;13.20;7.32;;;;;;;;;;5021322;28;20049;-47
2021/07/06 00:49:05;;;;;;;10.30;6.75;;;;;;;;;;5014064;28;20092;-46
2021/07/06 00:51:32;;;;;;;12.98;7.20;;;;;;;;;;5018511;28;20132;-48
2021/07/06 00:53:59;;;;;;;14.25;6.32;;;;;;;;;;5027330;28;20144;-46
2021/07/06 00:56:25;;;;;;;16.83;6.10;;;;;;;;;;5020594;28;20148;-47
2021/07/06 00:58:52;;;;;;;9.32;6.07;;;;;;;;;;5020761;28;20140;-47
2021/07/06 01:01:25;;;;;;;9.90;5.85;;;;;;;;;;5023638;28;20053;-47
2021/07/06 01:03:52;;;;;;;12.95;5.82;;;;;;;;;;5009556;28;20077;-48
2021/07/06 01:06:19;;;;;;;11.65;6.07;;;;;;;;;;5022555;28;20079;-47
2021/07/06 01:08:45;;;;;;;9.80;5.18;;;;;;;;;;5023043;28;20057;-50
2021/07/06 01:11:15;;;;;;;9.98;5.60;;;;;;;;;;5010578;28;20086;-47
2021/07/06 01:13:42;;;;;;;7.93;4.60;;;;;;;;;;5019687;28;20390;-48
2021/07/06 01:16:08;;;;;;;8.27;4.63;;;;;;;;;;5024725;28;20079;-48
2021/07/06 01:18:35;;;;;;;9.10;4.30;;;;;;;;;;5006349;28;20464;-48
2021/07/06 01:21:02;;;;;;;7.30;4.15;;;;;;;;;;5026366;28;20668;-48
2021/07/06 01:23:29;;;;;;;7.22;4.68;;;;;;;;;;5024113;28;20749;-47
2021/07/06 01:25:57;;;;;;;8.75;4.07;;;;;;;;;;5014872;28;20159;-47
2021/07/06 01:28:23;;;;;;;7.75;4.03;;;;;;;;;;5022980;28;20049;-47
2021/07/06 01:30:49;;;;;;;5.25;3.90;;;;;;;;;;5008942;28;20137;-48
2021/07/06 01:33:22;;;;;;;6.50;4.03;;;;;;;;;;5021120;28;20139;-49
2021/07/06 01:35:53;;;;;;;6.30;3.80;;;;;;;;;;5014510;28;20494;-47
2021/07/06 01:38:19;;;;;;;8.63;3.92;;;;;;;;;;5023935;28;20478;-48
2021/07/06 01:40:45;;;;;;;7.60;3.95;;;;;;;;;;5028136;28;20140;-47
2021/07/06 01:43:12;;;;;;;5.70;3.65;;;;;;;;;;5013463;28;20045;-46
2021/07/06 01:45:39;;;;;;;6.20;2.97;;;;;;;;;;5021297;28;20146;-48
2021/07/06 01:48:05;;;;;;;5.30;3.00;;;;;;;;;;5020799;28;20103;-48
2021/07/06 01:50:36;;;;;;;4.80;2.92;;;;;;;;;;5027685;28;20133;-48
2021/07/06 01:53:04;;;;;;;5.10;2.72;;;;;;;;;;5018717;28;20164;-47
2021/07/06 01:55:32;;;;;;;3.15;2.38;;;;;;;;;;5021993;28;20057;-48
2021/07/06 01:57:59;;;;;;;4.45;2.67;;;;;;;;;;5021103;28;20055;-46
2021/07/06 02:00:32;;;;;;;4.72;2.72;;;;;;;;;;5026143;28;20141;-47
2021/07/06 02:02:59;;;;;;;4.50;2.45;;;;;;;;;;5025568;28;20073;-47
2021/07/06 02:05:33;;;;;;;8.82;2.50;;;;;;;;;;5008217;28;20464;-46
2021/07/06 02:08:00;;;;;;;3.65;2.50;;;;;;;;;;5020371;28;20145;-47
2021/07/06 02:10:27;;;;;;;4.25;2.78;;;;;;;;;;5017246;28;20048;-48
2021/07/06 02:12:54;;;;;;;8.95;2.80;;;;;;;;;;5025512;28;20049;-48
2021/07/06 02:15:20;;;;;;;8.98;2.85;;;;;;;;;;5021494;28;20107;-49
2021/07/06 02:17:47;;;;;;;4.30;2.38;;;;;;;;;;5026756;28;20054;-48
2021/07/06 02:20:15;;;;;;;7.30;2.72;;;;;;;;;;5006190;28;20377;-48
2021/07/06 02:22:42;;;;;;;4.45;2.75;;;;;;;;;;5013670;28;20056;-47
2021/07/06 02:25:09;;;;;;;3.13;2.43;;;;;;;;;;5023704;28;20136;-48
2021/07/06 02:27:36;;;;;;;8.52;2.90;;;;;;;;;;5011768;28;20568;-47
2021/07/06 02:30:07;;;;;;;7.25;3.10;;;;;;;;;;5008266;28;20408;-48
2021/07/06 02:32:33;;;;;;;9.43;3.28;;;;;;;;;;5013061;28;20053;-48
2021/07/06 02:34:59;;;;;;;4.43;3.05;;;;;;;;;;5020701;28;20054;-47
2021/07/06 02:37:26;;;;;;;8.77;3.83;;;;;;;;;;4998621;28;20148;-47
2021/07/06 02:39:52;;;;;;;6.03;3.42;;;;;;;;;;5016645;28;20168;-47
2021/07/06 02:42:18;;;;;;;7.18;3.40;;;;;;;;;;5025579;28;20068;-48
2021/07/06 02:44:45;;;;;;;6.10;3.22;;;;;;;;;;5010388;28;20495;-48
2021/07/06 02:47:11;;;;;;;5.05;3.05;;;;;;;;;;5016607;28;20085;-48
2021/07/06 02:49:37;;;;;;;5.97;3.00;;;;;;;;;;5013316;28;20561;-48
2021/07/06 02:52:04;;;;;;;8.20;2.90;;;;;;;;;;5015233;28;20150;-48
2021/07/06 02:54:30;;;;;;;4.80;3.03;;;;;;;;;;5016151;28;20144;-47
2021/07/06 02:56:56;;;;;;;4.57;2.92;;;;;;;;;;5025480;28;20085;-48
2021/07/06 02:59:23;;;;;;;4.05;2.83;;;;;;;;;;5012014;28;20128;-47
2021/07/06 03:01:49;;;;;;;6.18;2.53;;;;;;;;;;5012429;28;20148;-47
2021/07/06 03:04:16;;;;;;;4.90;3.10;;;;;;;;;;5018747;28;20416;-47
2021/07/06 03:06:42;;;;;;;7.35;3.05;;;;;;;;;;5013116;28;20148;-48
2021/07/06 03:09:08;;;;;;;4.72;2.92;;;;;;;;;;5009178;28;20466;-47
2021/07/06 03:11:35;;;;;;;5.45;2.90;;;;;;;;;;5002971;28;20140;-48
2021/07/06 03:14:01;;;;;;;4.38;2.78;;;;;;;;;;5018245;28;20084;-50
2021/07/06 03:16:27;;;;;;;5.43;2.72;;;;;;;;;;5012193;28;20187;-47
2021/07/06 03:18:54;;;;;;;5.53;2.95;;;;;;;;;;5019232;28;20046;-49
2021/07/06 03:21:20;;;;;;;4.30;2.78;;;;;;;;;;5023715;28;20088;-49
2021/07/06 03:23:47;;;;;;;6.68;2.90;;;;;;;;;;5003867;28;20077;-47
2021/07/06 03:26:13;;;;;;;8.52;3.17;;;;;;;;;;5024385;28;20091;-47
2021/07/06 03:28:41;;;;;;;6.30;3.40;;;;;;;;;;5014080;28;20565;-47
2021/07/06 03:31:07;;;;;;;4.93;3.25;;;;;;;;;;5021208;28;20069;-47
2021/07/06 03:33:34;;;;;;;5.93;3.50;;;;;;;;;;5012974;28;20159;-47
2021/07/06 03:36:00;;;;;;;7.82;3.40;;;;;;;;;;5025376;28;20485;-48
2021/07/06 03:38:27;;;;;;;4.82;3.15;;;;;;;;;;5022686;28;20064;-47
2021/07/06 03:40:53;;;;;;;6.40;3.88;;;;;;;;;;5011949;28;20137;-47
2021/07/06 03:43:19;;;;;;;8.75;4.10;;;;;;;;;;5016105;28;20049;-47
2021/07/06 03:45:46;;;;;;;8.82;3.92;;;;;;;;;;5006121;28;20050;-47
2021/07/06 03:48:12;;;;;;;9.90;4.00;;;;;;;;;;5005028;28;20046;-47
2021/07/06 03:50:38;;;;;;;9.75;4.65;;;;;;;;;;5012932;28;20834;-48
2021/07/06 03:53:06;;;;;;;8.15;3.58;;;;;;;;;;5011929;28;20096;-48
2021/07/06 03:55:33;;;;;;;8.48;3.55;;;;;;;;;;5023846;28;20548;-47
2021/07/06 03:58:00;;;;;;;4.60;2.88;;;;;;;;;;5016313;28;20400;-48
2021/07/06 04:00:27;;;;;;;7.22;3.33;;;;;;;;;;5022135;28;20160;-48
2021/07/06 04:02:54;;;;;;;8.32;3.30;;;;;;;;;;5019548;28;20494;-48
2021/07/06 04:05:21;;;;;;;7.65;3.05;;;;;;;;;;5027172;28;20160;-47
2021/07/06 04:07:47;;;;;;;9.18;3.22;;;;;;;;;;5018664;28;20556;-48
2021/07/06 04:10:16;;;;;;;10.18;3.42;;;;;;;;;;5014310;28;20053;-46
2021/07/06 04:12:43;;;;;;;7.43;3.65;;;;;;;;;;5011729;28;20556;-48
2021/07/06 04:15:11;;;;;;;8.15;3.30;;;;;;;;;;5020664;28;20042;-47
2021/07/06 04:17:37;;;;;;;5.03;3.15;;;;;;;;;;5020865;28;20170;-47
2021/07/06 04:20:05;;;;;;;10.55;3.35;;;;;;;;;;5023032;28;20144;-47
2021/07/06 04:22:31;;;;;;;13.32;3.17;;;;;;;;;;5022805;28;20805;-47
2021/07/06 04:24:58;;;;;;;10.90;3.10;;;;;;;;;;5020709;28;20136;-47
2021/07/06 04:27:24;;;;;;;6.28;3.25;;;;;;;;;;5017956;28;20820;-48
2021/07/06 04:29:51;;;;;;;6.32;3.00;;;;;;;;;;5022508;28;20180;-46
2021/07/06 04:32:18;;;;;;;6.07;2.92;;;;;;;;;;5021114;28;20140;-46
2021/07/06 04:34:45;;;;;;;11.50;4.18;;;;;;;;;;5007815;28;20085;-46
2021/07/06 04:37:11;;;;;;;10.02;3.15;;;;;;;;;;5014336;28;20553;-47
2021/07/06 04:39:38;;;;;;;11.25;3.60;;;;;;;;;;5025191;28;20111;-46
2021/07/06 04:42:05;;;;;;;11.32;3.38;;;;;;;;;;5016947;28;20136;-48
2021/07/06 04:44:31;;;;;;;10.25;3.80;;;;;;;;;;5027072;28;20172;-47
2021/07/06 04:46:57;;;;;;;10.10;3.20;;;;;;;;;;5020429;28;20072;-49
2021/07/06 04:49:26;;;;;;;5.50;3.17;;;;;;;;;;5015801;28;20165;-47
2021/07/06 04:51:53;;;;;;;9.70;3.25;;;;;;;;;;5018009;28;20137;-47
2021/07/06 04:54:23;;;;;;;11.15;3.17;;;;;;;;;;5021403;28;20128;-48
2021/07/06 04:56:53;;;;;;;9.20;3.55;;;;;;;;;;5008507;28;20173;-47
2021/07/06 04:59:20;;;;;;;8.40;3.40;;;;;;;;;;5014386;28;20049;-48
2021/07/06 05:01:46;;;;;;;6.10;3.30;;;;;;;;;;5026849;28;20089;-48
2021/07/06 05:04:13;;;;;;;9.43;3.17;;;;;;;;;;5019667;28;20081;-46
2021/07/06 05:06:41;;;;;;;8.35;3.03;;;;;;;;;;5018311;28;20145;-46
2021/07/06 05:09:07;;;;;;;6.07;3.03;;;;;;;;;;4997520;28;20160;-48
2021/07/06 05:11:34;;;;;;;8.43;2.58;;;;;;;;;;5019972;28;20418;-47
2021/07/06 05:14:01;;;;;;;5.43;2.67;;;;;;;;;;5023227;28;20434;-46
2021/07/06 05:16:30;;;;;;;7.78;2.50;;;;;;;;;;5020908;28;20081;-47
2021/07/06 05:18:57;;;;;;;6.10;2.72;;;;;;;;;;5019269;28;20053;-48
2021/07/06 05:21:23;;;;;;;7.47;2.88;;;;;;;;;;5009358;28;20137;-46
2021/07/06 05:24:06;;;;;;;5.22;2.80;;;;;;;;;;5019174;28;20395;-48
2021/07/06 05:26:32;;;;;;;6.55;3.00;;;;;;;;;;5013908;28;20053;-49
2021/07/06 05:28:58;;;;;;;9.40;2.80;;;;;;;;;;5023778;28;20132;-48
2021/07/06 05:31:25;;;;;;;9.57;2.40;;;;;;;;;;5015711;28;20149;-47
2021/07/06 05:33:51;;;;;;;9.48;3.22;;;;;;;;;;5020670;28;20049;-47
2021/07/06 05:36:19;;;;;;;9.98;2.90;;;;;;;;;;5018584;28;20132;-46
2021/07/06 05:38:45;;;;;;;6.57;2.57;;;;;;;;;;5016801;28;20141;-48
2021/07/06 05:41:12;;;;;;;8.95;3.03;;;;;;;;;;5017227;28;20394;-48
2021/07/06 05:43:38;;;;;;;8.90;2.92;;;;;;;;;;5013680;28;20156;-47
2021/07/06 05:46:05;;;;;;;6.63;2.38;;;;;;;;;;5025689;28;20137;-47
2021/07/06 05:48:31;;;;;;;7.30;2.55;;;;;;;;;;5003922;28;20050;-48
2021/07/06 05:50:58;;;;;;;10.68;2.85;;;;;;;;;;5013128;28;20060;-47
2021/07/06 05:53:24;;;;;;;8.95;2.90;;;;;;;;;;5014743;28;20049;-48
2021/07/06 05:55:50;;;;;;;10.80;3.50;;;;;;;;;;5027191;28;20142;-46
2021/07/06 05:58:17;;;;;;;9.57;3.33;;;;;;;;;;5019581;28;20474;-47
2021/07/06 06:00:44;;;;;;;8.68;3.20;;;;;;;;;;5015951;28;20136;-48
2021/07/06 06:03:11;;;;;;;7.90;3.00;;;;;;;;;;5009208;28;20144;-52
2021/07/06 06:05:40;;;;;;;10.07;2.85;;;;;;;;;;5013272;28;20068;-48
2021/07/06 06:08:07;;;;;;;4.00;2.40;;;;;;;;;;5015894;28;20140;-48
2021/07/06 06:10:33;;;;;;;7.25;2.90;;;;;;;;;;5018172;28;20053;-49
2021/07/06 06:13:00;;;;;;;6.68;2.80;;;;;;;;;;5019423;28;20479;-49
2021/07/06 06:15:26;;;;;;;7.78;3.13;;;;;;;;;;5017630;28;20151;-49
2021/07/06 06:17:53;;;;;;;6.50;3.13;;;;;;;;;;5010320;28;20046;-49
2021/07/06 06:20:19;;;;;;;5.82;2.95;;;;;;;;;;5011835;28;20140;-47
2021/07/06 06:22:46;;;;;;;7.78;2.72;;;;;;;;;;5019335;28;20136;-49
2021/07/06 06:25:12;;;;;;;3.90;2.60;;;;;;;;;;5025280;28;20500;-47
2021/07/06 06:27:39;;;;;;;12.38;2.80;;;;;;;;;;5016438;28;20717;-47
2021/07/06 06:30:05;;;;;;;9.57;3.03;;;;;;;;;;5025829;28;20081;-46
2021/07/06 06:32:32;;;;;;;10.38;2.88;;;;;;;;;;5010050;28;20471;-48
2021/07/06 06:34:58;;;;;;;10.18;3.05;;;;;;;;;;5012534;28;20552;-48
2021/07/06 06:37:25;;;;;;;6.47;2.70;;;;;;;;;;5026269;28;20053;-49
2021/07/06 06:39:51;;;;;;;8.35;2.70;;;;;;;;;;5013767;28;20569;-49
2021/07/06 06:42:17;;;;;;;8.27;2.88;;;;;;;;;;5018411;28;20169;-49
2021/07/06 06:44:44;;;;;;;7.50;2.95;;;;;;;;;;5011383;28;20561;-48
2021/07/06 06:47:11;;;;;;;6.55;3.58;;;;;;;;;;5009996;28;20409;-49
2021/07/06 06:49:38;;;;;;;6.50;3.30;;;;;;;;;;5015874;28;20061;-49
2021/07/06 06:52:04;;;;;;;7.80;2.97;;;;;;;;;;5019836;28;20050;-48
2021/07/06 06:54:32;;;;;;;6.07;3.08;;;;;;;;;;5012984;28;20050;-48
2021/07/06 06:56:59;;;;;;;8.88;3.30;;;;;;;;;;5006443;28;20080;-49
2021/07/06 06:59:25;;;;;;;8.02;3.13;;;;;;;;;;5014455;28;20449;-49
2021/07/06 07:02:16;;;;;;;10.68;3.38;;;;;;;;;;5011629;28;20478;-48
2021/07/06 07:04:38;;;;;;;14.20;3.42;;;;;;;;;;5011120;28;20073;-48
2021/07/06 07:07:05;;;;;;;8.40;3.65;;;;;;;;;;5000681;28;20678;-48
2021/07/06 07:09:31;;;;;;;12.70;3.60;;;;;;;;;;5005706;28;20136;-49
2021/07/06 07:11:57;;;;;;;7.28;3.08;;;;;;;;;;5012598;28;20045;-48
2021/07/06 07:14:24;;;;;;;6.68;3.05;;;;;;;;;;5014263;28;20056;-49
2021/07/06 07:16:51;;;;;;;11.15;3.45;;;;;;;;;;5015731;28;20053;-48
2021/07/06 07:19:17;;;;;;;6.30;3.50;;;;;;;;;;5025990;28;20076;-47
2021/07/06 07:21:58;;;;;;;8.93;3.00;;;;;;;;;;5024582;28;20432;-48
2021/07/06 07:24:25;;;;;;;6.75;3.20;;;;;;;;;;5009044;28;20413;-50
2021/07/06 07:26:51;;;;;;;11.70;2.70;;;;;;;;;;5014972;28;20136;-49
2021/07/06 07:29:18;;;;;;;7.97;4.07;;;;;;;;;;5017070;28;20516;-51
2021/07/06 07:31:44;;;;;;;9.55;2.92;;;;;;;;;;5023769;28;20042;-49
2021/07/06 07:34:11;;;;;;;6.72;3.00;;;;;;;;;;5004799;28;20505;-48
2021/07/06 07:36:37;;;;;;;5.68;2.92;;;;;;;;;;5006009;28;20417;-51
2021/07/06 07:39:04;;;;;;;7.28;3.10;;;;;;;;;;5007651;28;20896;-52
2021/07/06 07:41:30;;;;;;;5.97;2.67;;;;;;;;;;4998948;28;20145;-49
2021/07/06 07:43:57;;;;;;;4.20;2.42;;;;;;;;;;5011429;28;20049;-50
2021/07/06 07:46:24;;;;;;;12.48;2.50;;;;;;;;;;5001154;28;20141;-48
2021/07/06 07:48:51;;;;;;;4.30;2.10;;;;;;;;;;5011523;28;20058;-49
2021/07/06 07:51:17;;;;;;;6.57;2.20;;;;;;;;;;5002457;28;20125;-48
2021/07/06 07:53:44;;;;;;;4.68;2.10;;;;;;;;;;5003187;28;20160;-48
2021/07/06 07:56:11;;;;;;;2.88;1.83;;;;;;;;;;5011337;28;20116;-48
2021/07/06 07:58:38;;;;;;;6.45;1.70;;;;;;;;;;5007712;28;20261;-48
2021/07/06 08:01:04;;;;;;;4.60;1.58;;;;;;;;;;5007011;28;20128;-49
2021/07/06 08:03:31;;;;;;;6.00;1.50;;;;;;;;;;5002177;28;20414;-48
2021/07/06 08:05:57;;;;;;;5.53;1.75;;;;;;;;;;5007315;28;20468;-47
2021/07/06 08:08:24;;;;;;;3.55;1.70;;;;;;;;;;5010701;28;20558;-48
2021/07/06 08:10:53;;;;;;;4.45;1.83;;;;;;;;;;5012478;28;20453;-50
2021/07/06 08:13:20;;;;;;;3.85;1.50;;;;;;;;;;5010652;28;20798;-49
2021/07/06 08:15:47;;;;;;;2.22;1.30;;;;;;;;;;5011903;28;20060;-48
2021/07/06 08:18:13;;;;;;;4.00;1.50;;;;;;;;;;5006813;28;20478;-50
2021/07/06 08:20:40;;;;;;;3.33;1.42;;;;;;;;;;5006259;28;20449;-48
2021/07/06 08:23:06;;;;;;;4.90;1.58;;;;;;;;;;5012156;28;20049;-48
2021/07/06 08:25:32;;;;;;;6.25;1.38;;;;;;;;;;5009321;28;20820;-49
2021/07/06 08:27:59;;;;;;;4.90;1.70;;;;;;;;;;5017385;28;20144;-48
2021/07/06 08:30:25;;;;;;;2.90;1.67;;;;;;;;;;5004956;28;20159;-48
2021/07/06 08:32:52;;;;;;;3.45;1.55;;;;;;;;;;5008999;28;20088;-48
2021/07/06 08:35:19;;;;;;;7.78;2.10;;;;;;;;;;5002999;28;20140;-48
2021/07/06 08:37:46;;;;;;;4.93;1.80;;;;;;;;;;5011879;28;20088;-49
2021/07/06 08:40:13;;;;;;;4.82;1.73;;;;;;;;;;5015819;28;20095;-49
2021/07/06 08:42:39;;;;;;;6.28;1.40;;;;;;;;;;5008217;28;20153;-49
2021/07/06 08:45:07;;;;;;;5.20;1.40;;;;;;;;;;5015501;28;20052;-49
2021/07/06 08:47:33;;;;;;;6.75;1.50;;;;;;;;;;5005920;28;20064;-48
2021/07/06 08:50:08;;;;;;;3.05;1.45;;;;;;;;;;5017449;28;20053;-49
2021/07/06 08:52:36;;;;;;;9.55;1.40;;;;;;;;;;5011782;28;20509;-48
2021/07/06 08:55:03;;;;;;;1.33;1.10;;;;;;;;;;5020524;28;20136;-50
2021/07/06 08:57:29;;;;;;;2.13;1.30;;;;;;;;;;5015382;28;20128;-49
2021/07/06 08:59:56;;;;;;;1.70;1.10;;;;;;;;;;5006995;28;20112;-50
2021/07/06 09:02:22;;;;;;;5.97;1.50;;;;;;;;;;5015490;28;20132;-50
2021/07/06 09:04:53;;;;;;;6.28;1.45;;;;;;;;;;5009983;28;20133;-52
2021/07/06 09:07:20;;;;;;;4.35;1.38;;;;;;;;;;5029340;28;20545;-47
2021/07/06 09:09:47;;;;;;;4.47;1.52;;;;;;;;;;5019108;28;20144;-51
2021/07/06 09:12:14;;;;;;;3.35;1.23;;;;;;;;;;5019330;28;20068;-48
2021/07/06 09:14:43;;;;;;;;;;;;;;;;;;5017242;28;20148;-47
2021/07/06 09:17:11;;;;;;;8.35;1.50;;;;;;;;;;5025523;28;20385;-48
2021/07/06 09:19:38;;;;;;;5.80;1.45;;;;;;;;;;5027265;28;20428;-49
2021/07/06 09:22:13;;;;;;;5.13;1.50;;;;;;;;;;5018036;28;20132;-51
2021/07/06 09:24:40;;;;;;;3.97;1.75;;;;;;;;;;5027863;28;20085;-50
2021/07/06 09:27:20;;;;;;;6.22;1.67;;;;;;;;;;5011012;28;20526;-49
2021/07/06 09:30:06;;;;;;;3.60;1.80;;;;;;;;;;5021942;28;20050;-50
2021/07/06 09:32:43;;;;;;;6.95;1.60;;;;;;;;;;5011062;28;20049;-50
2021/07/06 09:35:12;;;;;;;6.57;1.42;;;;;;;;;;5016567;28;20076;-52
2021/07/06 09:37:43;;;;;;;7.13;1.50;;;;;;;;;;5004639;28;20057;-49
2021/07/06 09:40:26;;;;;;;6.10;1.38;;;;;;;;;;5009375;28;20735;-47
2021/07/06 09:43:11;;;;;;;2.88;1.15;;;;;;;;;;5002156;28;20490;-47
2021/07/06 09:45:38;;;;;;;7.60;1.60;;;;;;;;;;5010301;28;20124;-49
2021/07/06 09:48:05;;;;;;;4.78;1.33;;;;;;;;;;5019740;28;20157;-48
2021/07/06 09:50:31;;;;;;;4.18;1.48;;;;;;;;;;5012973;28;20046;-48
2021/07/06 09:52:59;;;;;;;5.93;1.55;;;;;;;;;;5007886;28;20049;-47
2021/07/06 09:55:30;;;;;;;9.27;1.70;;;;;;;;;;5021413;28;20540;-49
2021/07/06 09:57:56;;;;;;;4.57;1.48;;;;;;;;;;5022023;28;20103;-47
2021/07/06 10:00:23;;;;;;;6.45;1.60;;;;;;;;;;5002292;28;20141;-47
2021/07/06 10:02:57;;;;;;;5.13;1.95;;;;;;;;;;5012470;28;20132;-47
2021/07/06 10:05:24;;;;;;;7.05;1.83;;;;;;;;;;5016568;28;20053;-49
2021/07/06 10:07:50;;;;;;;13.48;2.05;;;;;;;;;;5012674;28;20049;-49
2021/07/06 10:10:19;;;;;;;5.88;1.88;;;;;;;;;;5014510;28;20151;-48
2021/07/06 10:12:46;;;;;;;8.25;1.92;;;;;;;;;;5018321;28;20054;-50
2021/07/06 10:15:15;;;;;;;8.60;1.70;;;;;;;;;;5010660;28;20042;-49
2021/07/06 10:17:45;;;;;;;8.63;1.77;;;;;;;;;;5002647;28;20061;-48
2021/07/06 10:20:13;;;;;;;6.27;1.87;;;;;;;;;;5019288;28;20142;-48
2021/07/06 10:22:39;;;;;;;7.70;2.08;;;;;;;;;;5002589;28;20124;-50
2021/07/06 10:25:10;;;;;;;5.22;1.67;;;;;;;;;;5025944;28;20107;-48
2021/07/06 10:27:38;;;;;;;9.45;2.10;;;;;;;;;;5020131;28;20045;-49
2021/07/06 10:30:04;;;;;;;;;;;;;;;;;;5016443;28;20722;-46
2021/07/06 10:32:51;;;;;;;6.30;1.73;;;;;;;;;;5013104;28;20511;-49
2021/07/06 10:35:36;;;;;;;6.22;2.00;;;;;;;;;;5008340;28;20053;-50
2021/07/06 10:38:21;;;;;;;5.88;1.58;;;;;;;;;;5009166;28;20050;-50
2021/07/06 10:40:47;;;;;;;7.35;1.60;;;;;;;;;;5007529;28;20060;-48
2021/07/06 10:43:29;;;;;;;4.10;1.60;;;;;;;;;;5006655;28;20128;-46
2021/07/06 10:45:56;;;;;;;6.22;2.00;;;;;;;;;;5012685;28;20580;-47
2021/07/06 10:48:39;;;;;;;6.22;1.77;;;;;;;;;;5006697;28;20049;-48
2021/07/06 10:51:06;;;;;;;8.05;1.80;;;;;;;;;;5000388;28;20841;-49
2021/07/06 10:53:32;;;;;;;3.97;1.50;;;;;;;;;;5009216;28;20081;-50
2021/07/06 10:56:01;;;;;;;6.63;1.83;;;;;;;;;;5011360;28;20136;-50
2021/07/06 10:58:46;;;;;;;5.63;1.50;;;;;;;;;;5010124;28;20137;-50
2021/07/06 11:01:32;;;;;;;9.70;1.90;;;;;;;;;;5000407;28;20100;-49
2021/07/06 11:04:10;;;;;;;7.50;1.30;;;;;;;;;;5007008;28;20060;-50
2021/07/06 11:06:48;;;;;;;9.38;2.28;;;;;;;;;;5014173;28;20053;-49
2021/07/06 11:09:24;;;;;;;13.77;1.85;;;;;;;;;;5016518;28;20144;-48
2021/07/06 11:11:51;;;;;;;6.70;1.65;;;;;;;;;;5016837;28;20777;-48
2021/07/06 11:14:18;;;;;;;4.95;1.55;;;;;;;;;;5025312;28;20045;-49
2021/07/06 11:16:54;;;;;;;4.03;1.50;;;;;;;;;;5017074;28;20108;-48
2021/07/06 11:19:40;;;;;;;7.82;1.50;;;;;;;;;;5003589;28;20825;-47
2021/07/06 11:22:11;;;;;;;10.75;1.50;;;;;;;;;;5021196;28;20081;-49
2021/07/06 11:24:39;;;;;;;11.32;1.50;;;;;;;;;;5006681;28;20499;-50
2021/07/06 11:27:06;;;;;;;10.95;1.40;;;;;;;;;;5020385;28;20473;-50
2021/07/06 11:29:36;;;;;;;12.43;1.73;;;;;;;;;;5014302;28;20148;-48
2021/07/06 11:32:14;;;;;;;14.45;1.85;;;;;;;;;;5015124;28;20133;-48
2021/07/06 11:34:41;;;;;;;11.73;1.70;;;;;;;;;;5004062;28;20054;-49
2021/07/06 11:37:15;;;;;;;5.55;1.58;;;;;;;;;;5009740;28;20671;-47
2021/07/06 11:39:41;;;;;;;12.85;1.63;;;;;;;;;;5003297;28;20141;-50
2021/07/06 11:42:09;;;;;;;10.43;1.40;;;;;;;;;;5006393;28;20390;-47
2021/07/06 11:44:36;;;;;;;8.05;1.80;;;;;;;;;;5003433;28;20144;-47
2021/07/06 11:47:13;;;;;;;9.38;1.80;;;;;;;;;;5005904;28;20066;-48
2021/07/06 11:49:42;;;;;;;15.20;1.40;;;;;;;;;;5020028;28;20065;-48
2021/07/06 11:52:08;;;;;;;6.93;1.33;;;;;;;;;;5001587;28;20287;-49
2021/07/06 11:54:35;;;;;;;10.45;1.40;;;;;;;;;;5012590;28;20082;-50
2021/07/06 11:57:02;;;;;;;10.32;2.05;;;;;;;;;;5003631;28;20502;-47
2021/07/06 11:59:29;;;;;;;6.22;1.60;;;;;;;;;;5004543;28;20104;-49
2021/07/06 12:02:25;;;;;;;9.20;1.42;;;;;;;;;;5002082;28;20057;-48
2021/07/06 12:04:51;;;;;;;10.40;1.60;;;;;;;;;;5003662;28;20141;-51
2021/07/06 12:07:18;;;;;;;9.60;1.52;;;;;;;;;;5020436;28;20045;-48
2021/07/06 12:09:45;;;;;;;4.85;1.55;;;;;;;;;;5022274;28;20076;-47
2021/07/06 12:12:12;;;;;;;8.68;1.60;;;;;;;;;;5019740;28;20444;-50
2021/07/06 12:14:44;;;;;;;10.10;1.55;;;;;;;;;;5019454;28;20100;-49
2021/07/06 12:17:20;;;;;;;13.77;1.52;;;;;;;;;;5014591;28;20049;-48
2021/07/06 12:19:47;;;;;;;7.70;1.63;;;;;;;;;;5011240;28;20100;-49
2021/07/06 12:22:17;;;;;;;8.27;1.80;;;;;;;;;;5021930;28;20137;-50
2021/07/06 12:24:43;;;;;;;8.63;1.60;;;;;;;;;;5006753;28;20168;-49
2021/07/06 12:27:14;;;;;;;7.10;1.65;;;;;;;;;;5025856;28;20092;-48
2021/07/06 12:29:41;;;;;;;5.53;1.38;;;;;;;;;;5002101;28;20145;-49
2021/07/06 12:32:16;;;;;;;5.55;1.35;;;;;;;;;;5012928;28;20585;-50
2021/07/06 12:34:46;;;;;;;6.15;1.42;;;;;;;;;;5012188;28;20111;-48
2021/07/06 12:37:13;;;;;;;8.50;1.40;;;;;;;;;;5003620;28;20164;-48
2021/07/06 12:39:40;;;;;;;9.93;1.63;;;;;;;;;;5009238;28;20136;-49
2021/07/06 12:42:11;;;;;;;2.08;0.98;;;;;;;;;;5009372;28;20514;-50
2021/07/06 12:44:44;;;;;;;7.85;1.58;;;;;;;;;;5020927;28;20141;-48
2021/07/06 12:47:10;;;;;;;4.28;1.30;;;;;;;;;;5005910;28;20058;-48
2021/07/06 12:49:37;;;;;;;5.85;1.40;;;;;;;;;;5017335;28;20084;-49
2021/07/06 12:52:03;;;;;;;9.18;1.80;;;;;;;;;;5004177;28;20739;-49
2021/07/06 12:54:31;;;;;;;10.98;1.92;;;;;;;;;;5012973;28;20517;-48
2021/07/06 12:56:58;;;;;;;7.32;1.60;;;;;;;;;;5018729;28;20142;-48
2021/07/06 12:59:26;;;;;;;9.20;1.70;;;;;;;;;;5005276;28;20572;-49
2021/07/06 13:01:53;;;;;;;6.82;1.55;;;;;;;;;;5008628;28;20186;-49
2021/07/06 13:04:21;;;;;;;5.95;1.50;;;;;;;;;;5001861;28;20138;-50
2021/07/06 13:06:50;;;;;;;12.02;1.85;;;;;;;;;;5022539;28;20229;-49
2021/07/06 13:09:26;;;;;;;11.40;1.67;;;;;;;;;;5022149;28;20076;-49
2021/07/06 13:11:54;;;;;;;9.88;1.77;;;;;;;;;;5027013;28;20148;-48
2021/07/06 13:14:21;;;;;;;12.57;1.50;;;;;;;;;;5023241;28;20164;-48
2021/07/06 13:16:49;;;;;;;7.25;1.70;;;;;;;;;;5026715;28;20088;-48
2021/07/06 13:19:22;;;;;;;9.98;1.35;;;;;;;;;;5023065;28;20079;-48
2021/07/06 13:21:49;;;;;;;6.68;1.10;;;;;;;;;;5019255;28;20541;-46
2021/07/06 13:24:16;;;;;;;9.65;1.23;;;;;;;;;;5015260;28;20132;-47
2021/07/06 13:26:42;;;;;;;7.80;1.50;;;;;;;;;;5022093;28;20160;-49
2021/07/06 13:29:10;;;;;;;5.65;1.23;;;;;;;;;;5017019;28;20140;-49
2021/07/06 13:31:40;;;;;;;6.25;1.23;;;;;;;;;;5008245;28;20148;-47
2021/07/06 13:34:08;;;;;;;7.97;1.30;;;;;;;;;;5016615;28;20060;-47
2021/07/06 13:36:35;;;;;;;10.70;1.42;;;;;;;;;;5013147;28;20074;-47
2021/07/06 13:39:03;;;;;;;5.05;1.40;;;;;;;;;;5006285;28;20160;-48
2021/07/06 13:41:29;;;;;;;11.33;1.57;;;;;;;;;;5008704;28;20128;-49
2021/07/06 13:43:57;;;;;;;11.40;1.63;;;;;;;;;;5006548;28;20124;-49
2021/07/06 13:46:23;;;;;;;7.30;1.58;;;;;;;;;;5010270;28;20081;-48
2021/07/06 13:48:49;;;;;;;6.53;1.50;;;;;;;;;;5003527;28;20136;-47
2021/07/06 13:51:16;;;;;;;11.18;1.65;;;;;;;;;;5011094;28;20546;-49
2021/07/06 13:53:42;;;;;;;5.90;1.55;;;;;;;;;;5007510;28;20571;-47
2021/07/06 13:56:09;;;;;;;8.25;1.40;;;;;;;;;;5013397;28;20085;-47
2021/07/06 13:58:35;;;;;;;9.82;1.50;;;;;;;;;;5005857;28;20487;-49
2021/07/06 14:01:02;;;;;;;8.40;1.40;;;;;;;;;;5007586;28;20088;-50
2021/07/06 14:03:28;;;;;;;7.07;1.42;;;;;;;;;;5009595;28;20069;-47
2021/07/06 14:05:58;;;;;;;5.53;1.20;;;;;;;;;;5011089;28;20095;-49
2021/07/06 14:08:25;;;;;;;5.57;1.10;;;;;;;;;;5025142;28;20153;-47
2021/07/06 14:10:52;;;;;;;10.00;1.33;;;;;;;;;;5009818;28;20088;-48
2021/07/06 14:13:18;;;;;;;10.85;1.38;;;;;;;;;;5018699;28;20068;-48
2021/07/06 14:15:44;;;;;;;5.30;1.30;;;;;;;;;;5021163;28;20085;-48
2021/07/06 14:18:11;;;;;;;7.15;1.30;;;;;;;;;;5021327;28;20049;-49
2021/07/06 14:20:47;;;;;;;6.25;1.58;;;;;;;;;;5020369;28;20458;-49
2021/07/06 14:23:14;;;;;;;11.15;1.30;;;;;;;;;;5009208;28;20103;-49
2021/07/06 14:25:44;;;;;;;7.55;1.40;;;;;;;;;;5016304;28;20073;-49
2021/07/06 14:28:11;;;;;;;6.22;1.27;;;;;;;;;;5015901;28;20055;-48
2021/07/06 14:30:37;;;;;;;4.93;1.10;;;;;;;;;;5023482;28;20086;-48
2021/07/06 14:33:05;;;;;;;8.80;1.40;;;;;;;;;;5005279;28;20133;-48
2021/07/06 14:35:33;;;;;;;9.82;1.40;;;;;;;;;;5012177;28;20050;-49
2021/07/06 14:37:59;;;;;;;7.03;1.55;;;;;;;;;;5002012;28;20434;-49
2021/07/06 14:40:26;;;;;;;4.18;1.13;;;;;;;;;;5002309;28;20045;-47
2021/07/06 14:42:52;;;;;;;5.55;1.20;;;;;;;;;;5006689;28;20153;-48
2021/07/06 14:45:20;;;;;;;3.53;1.30;;;;;;;;;;5005455;28;20053;-46